sensor_id;sensor_type;location;lat;lon;timestamp;pressure;altitude;pressure_sealevel;temperature;humidity
55424;BME280;41294;42.666;23.350;2024-01-30T00:00:16;96824.09;;;1.04;73.77
55424;BME280;41294;42.666;23.350;2024-01-30T00:02:42;96825.13;;;1.15;72.57
55424;BME280;41294;42.666;23.350;2024-01-30T00:05:08;96827.88;;;1.07;74.20
55424;BME280;41294;42.666;23.350;2024-01-30T00:07:34;96828.84;;;1.02;73.84
55424;BME280;41294;42.666;23.350;2024-01-30T00:09:59;96828.34;;;0.97;74.83
55424;BME280;41294;42.666;23.350;2024-01-30T00:12:25;96831.06;;;0.88;75.66
55424;BME280;41294;42.666;23.350;2024-01-30T00:14:51;96831.19;;;0.80;76.35
55424;BME280;41294;42.666;23.350;2024-01-30T00:17:17;96834.44;;;0.77;76.38
55424;BME280;41294;42.666;23.350;2024-01-30T00:19:42;96835.31;;;0.81;76.54
55424;BME280;41294;42.666;23.350;2024-01-30T00:22:08;96840.47;;;0.81;76.35
55424;BME280;41294;42.666;23.350;2024-01-30T00:24:33;96838.78;;;0.73;76.57
55424;BME280;41294;42.666;23.350;2024-01-30T00:26:59;96840.94;;;0.71;77.22
55424;BME280;41294;42.666;23.350;2024-01-30T00:29:24;96841.28;;;0.70;77.19
55424;BME280;41294;42.666;23.350;2024-01-30T00:31:55;96835.84;;;0.75;76.65
55424;BME280;41294;42.666;23.350;2024-01-30T00:34:20;96845.25;;;0.67;76.96
55424;BME280;41294;42.666;23.350;2024-01-30T00:36:46;96838.56;;;0.66;77.25
55424;BME280;41294;42.666;23.350;2024-01-30T00:39:11;96845.59;;;0.66;77.08
55424;BME280;41294;42.666;23.350;2024-01-30T00:41:37;96840.75;;;0.40;78.49
55424;BME280;41294;42.666;23.350;2024-01-30T00:44:03;96837.97;;;0.45;78.49
55424;BME280;41294;42.666;23.350;2024-01-30T00:46:28;96843.34;;;0.52;78.48
55424;BME280;41294;42.666;23.350;2024-01-30T00:48:54;96842.25;;;0.53;77.43
55424;BME280;41294;42.666;23.350;2024-01-30T00:51:19;96846.31;;;0.66;75.42
55424;BME280;41294;42.666;23.350;2024-01-30T00:53:45;96841.38;;;0.61;77.05
55424;BME280;41294;42.666;23.350;2024-01-30T00:56:10;96838.78;;;0.73;76.24
55424;BME280;41294;42.666;23.350;2024-01-30T00:58:36;96835.41;;;0.84;75.93
55424;BME280;41294;42.666;23.350;2024-01-30T01:01:01;96837.03;;;0.77;76.14
55424;BME280;41294;42.666;23.350;2024-01-30T01:03:27;96846.97;;;0.75;76.33
55424;BME280;41294;42.666;23.350;2024-01-30T01:05:53;96834.16;;;0.67;76.58
55424;BME280;41294;42.666;23.350;2024-01-30T01:08:18;96832.34;;;0.55;77.55
55424;BME280;41294;42.666;23.350;2024-01-30T01:10:44;96834.94;;;0.55;77.06
55424;BME280;41294;42.666;23.350;2024-01-30T01:13:09;96838.81;;;0.49;77.11
55424;BME280;41294;42.666;23.350;2024-01-30T01:15:35;96833.84;;;0.32;78.21
55424;BME280;41294;42.666;23.350;2024-01-30T01:18:00;96834.53;;;0.29;78.41
55424;BME280;41294;42.666;23.350;2024-01-30T01:20:26;96841.88;;;0.39;78.17
55424;BME280;41294;42.666;23.350;2024-01-30T01:22:51;96835.47;;;0.37;77.82
55424;BME280;41294;42.666;23.350;2024-01-30T01:25:17;96831.50;;;0.27;77.79
55424;BME280;41294;42.666;23.350;2024-01-30T01:27:43;96840.34;;;0.14;78.90
55424;BME280;41294;42.666;23.350;2024-01-30T01:30:10;96834.09;;;0.15;78.59
55424;BME280;41294;42.666;23.350;2024-01-30T01:32:37;96842.41;;;0.21;78.86
55424;BME280;41294;42.666;23.350;2024-01-30T01:35:04;96834.97;;;0.19;77.92
55424;BME280;41294;42.666;23.350;2024-01-30T01:37:31;96835.47;;;0.01;78.37
55424;BME280;41294;42.666;23.350;2024-01-30T01:39:56;96839.06;;;0.08;79.06
55424;BME280;41294;42.666;23.350;2024-01-30T01:42:22;96833.00;;;0.04;78.94
55424;BME280;41294;42.666;23.350;2024-01-30T01:44:47;96841.22;;;-0.05;79.11
55424;BME280;41294;42.666;23.350;2024-01-30T01:47:14;96841.41;;;-0.10;79.94
55424;BME280;41294;42.666;23.350;2024-01-30T01:49:40;96840.75;;;0.04;78.75
55424;BME280;41294;42.666;23.350;2024-01-30T01:52:06;96835.38;;;0.09;78.70
55424;BME280;41294;42.666;23.350;2024-01-30T01:54:32;96838.53;;;-0.09;79.03
55424;BME280;41294;42.666;23.350;2024-01-30T01:56:59;96840.88;;;-0.04;79.13
55424;BME280;41294;42.666;23.350;2024-01-30T01:59:25;96844.34;;;-0.12;79.76
55424;BME280;41294;42.666;23.350;2024-01-30T02:01:52;96846.91;;;-0.12;80.17
55424;BME280;41294;42.666;23.350;2024-01-30T02:04:18;96842.06;;;-0.13;80.05
55424;BME280;41294;42.666;23.350;2024-01-30T02:06:44;96849.63;;;-0.08;79.86
55424;BME280;41294;42.666;23.350;2024-01-30T02:09:09;96842.28;;;-0.06;80.13
55424;BME280;41294;42.666;23.350;2024-01-30T02:11:35;96851.75;;;-0.10;80.39
55424;BME280;41294;42.666;23.350;2024-01-30T02:14:04;96849.94;;;-0.10;80.92
55424;BME280;41294;42.666;23.350;2024-01-30T02:16:33;96850.47;;;0.07;80.51
55424;BME280;41294;42.666;23.350;2024-01-30T02:18:59;96856.00;;;0.06;80.55
55424;BME280;41294;42.666;23.350;2024-01-30T02:21:24;96842.09;;;0.10;80.64
55424;BME280;41294;42.666;23.350;2024-01-30T02:23:50;96852.88;;;0.12;80.30
55424;BME280;41294;42.666;23.350;2024-01-30T02:26:17;96837.84;;;0.18;79.87
55424;BME280;41294;42.666;23.350;2024-01-30T02:28:43;96839.25;;;0.15;79.75
55424;BME280;41294;42.666;23.350;2024-01-30T02:31:08;96840.44;;;0.30;79.15
55424;BME280;41294;42.666;23.350;2024-01-30T02:33:34;96837.75;;;0.26;79.02
55424;BME280;41294;42.666;23.350;2024-01-30T02:35:59;96842.72;;;0.31;78.19
55424;BME280;41294;42.666;23.350;2024-01-30T02:38:25;96845.94;;;0.40;78.37
55424;BME280;41294;42.666;23.350;2024-01-30T02:40:52;96834.59;;;0.45;77.52
55424;BME280;41294;42.666;23.350;2024-01-30T02:43:18;96844.22;;;0.56;77.55
55424;BME280;41294;42.666;23.350;2024-01-30T02:45:43;96850.13;;;0.57;77.15
55424;BME280;41294;42.666;23.350;2024-01-30T02:48:09;96844.97;;;0.57;76.09
55424;BME280;41294;42.666;23.350;2024-01-30T02:50:34;96846.56;;;0.61;75.32
55424;BME280;41294;42.666;23.350;2024-01-30T02:53:00;96847.44;;;0.65;76.39
55424;BME280;41294;42.666;23.350;2024-01-30T02:55:25;96844.59;;;0.70;77.08
55424;BME280;41294;42.666;23.350;2024-01-30T02:57:51;96845.25;;;0.67;77.45
55424;BME280;41294;42.666;23.350;2024-01-30T03:00:16;96843.53;;;0.71;76.90
55424;BME280;41294;42.666;23.350;2024-01-30T03:02:42;96840.75;;;0.64;76.40
55424;BME280;41294;42.666;23.350;2024-01-30T03:05:08;96845.00;;;0.84;76.53
55424;BME280;41294;42.666;23.350;2024-01-30T03:07:33;96841.38;;;0.73;77.39
55424;BME280;41294;42.666;23.350;2024-01-30T03:09:59;96839.19;;;0.75;77.82
55424;BME280;41294;42.666;23.350;2024-01-30T03:12:24;96830.13;;;0.81;77.87
55424;BME280;41294;42.666;23.350;2024-01-30T03:14:50;96834.13;;;0.79;77.87
55424;BME280;41294;42.666;23.350;2024-01-30T03:17:15;96825.78;;;0.85;77.32
55424;BME280;41294;42.666;23.350;2024-01-30T03:19:41;96836.03;;;0.93;77.14
55424;BME280;41294;42.666;23.350;2024-01-30T03:22:06;96832.28;;;1.06;75.64
55424;BME280;41294;42.666;23.350;2024-01-30T03:24:32;96835.47;;;1.00;75.42
55424;BME280;41294;42.666;23.350;2024-01-30T03:26:57;96829.41;;;0.96;75.93
55424;BME280;41294;42.666;23.350;2024-01-30T03:29:23;96835.03;;;0.98;75.99
55424;BME280;41294;42.666;23.350;2024-01-30T03:31:48;96827.59;;;0.96;76.26
55424;BME280;41294;42.666;23.350;2024-01-30T03:34:14;96826.00;;;0.92;76.58
55424;BME280;41294;42.666;23.350;2024-01-30T03:36:39;96823.72;;;0.90;76.52
55424;BME280;41294;42.666;23.350;2024-01-30T03:39:05;96826.81;;;0.96;76.36
55424;BME280;41294;42.666;23.350;2024-01-30T03:41:31;96826.81;;;0.96;76.35
55424;BME280;41294;42.666;23.350;2024-01-30T03:43:56;96826.81;;;0.96;75.95
55424;BME280;41294;42.666;23.350;2024-01-30T03:46:22;96826.50;;;0.97;76.12
55424;BME280;41294;42.666;23.350;2024-01-30T03:48:47;96823.06;;;0.93;75.93
55424;BME280;41294;42.666;23.350;2024-01-30T03:51:13;96822.63;;;0.91;76.64
55424;BME280;41294;42.666;23.350;2024-01-30T03:53:40;96809.16;;;0.86;76.38
55424;BME280;41294;42.666;23.350;2024-01-30T03:56:07;96821.22;;;0.94;76.13
55424;BME280;41294;42.666;23.350;2024-01-30T03:58:32;96810.09;;;0.93;75.35
55424;BME280;41294;42.666;23.350;2024-01-30T04:00:58;96812.78;;;0.97;75.30
55424;BME280;41294;42.666;23.350;2024-01-30T04:03:23;96817.41;;;1.03;74.98
55424;BME280;41294;42.666;23.350;2024-01-30T04:05:50;96812.75;;;1.09;74.55
55424;BME280;41294;42.666;23.350;2024-01-30T04:08:16;96814.03;;;1.03;74.25
55424;BME280;41294;42.666;23.350;2024-01-30T04:10:42;96806.84;;;0.96;74.33
55424;BME280;41294;42.666;23.350;2024-01-30T04:13:07;96810.63;;;0.99;74.74
55424;BME280;41294;42.666;23.350;2024-01-30T04:15:32;96815.56;;;1.04;74.41
55424;BME280;41294;42.666;23.350;2024-01-30T04:17:58;96819.28;;;0.91;74.97
55424;BME280;41294;42.666;23.350;2024-01-30T04:20:25;96820.13;;;0.95;75.35
55424;BME280;41294;42.666;23.350;2024-01-30T04:22:50;96816.19;;;0.85;75.24
55424;BME280;41294;42.666;23.350;2024-01-30T04:25:16;96820.50;;;0.81;75.76
55424;BME280;41294;42.666;23.350;2024-01-30T04:27:42;96818.44;;;0.87;75.78
55424;BME280;41294;42.666;23.350;2024-01-30T04:30:07;96820.38;;;0.90;75.65
55424;BME280;41294;42.666;23.350;2024-01-30T04:32:34;96819.47;;;0.98;75.79
55424;BME280;41294;42.666;23.350;2024-01-30T04:35:00;96822.28;;;0.93;76.01
55424;BME280;41294;42.666;23.350;2024-01-30T04:37:26;96825.38;;;0.83;76.46
55424;BME280;41294;42.666;23.350;2024-01-30T04:39:51;96821.78;;;0.87;75.95
55424;BME280;41294;42.666;23.350;2024-01-30T04:42:17;96814.56;;;0.81;76.03
55424;BME280;41294;42.666;23.350;2024-01-30T04:44:42;96825.13;;;0.88;75.59
55424;BME280;41294;42.666;23.350;2024-01-30T04:47:08;96822.00;;;0.82;76.07
55424;BME280;41294;42.666;23.350;2024-01-30T04:49:36;96828.41;;;0.73;76.55
55424;BME280;41294;42.666;23.350;2024-01-30T04:52:02;96834.25;;;0.58;77.10
55424;BME280;41294;42.666;23.350;2024-01-30T04:54:27;96837.91;;;0.69;77.12
55424;BME280;41294;42.666;23.350;2024-01-30T04:56:53;96839.69;;;0.53;77.64
55424;BME280;41294;42.666;23.350;2024-01-30T04:59:18;96843.25;;;0.49;77.54
55424;BME280;41294;42.666;23.350;2024-01-30T05:01:44;96845.72;;;0.45;76.94
55424;BME280;41294;42.666;23.350;2024-01-30T05:04:10;96848.56;;;0.28;77.87
55424;BME280;41294;42.666;23.350;2024-01-30T05:06:36;96840.34;;;0.26;76.70
55424;BME280;41294;42.666;23.350;2024-01-30T05:09:02;96848.75;;;0.35;77.48
55424;BME280;41294;42.666;23.350;2024-01-30T05:11:29;96853.94;;;0.23;76.21
55424;BME280;41294;42.666;23.350;2024-01-30T05:13:55;96852.97;;;0.28;75.69
55424;BME280;41294;42.666;23.350;2024-01-30T05:16:21;96850.16;;;0.33;76.31
55424;BME280;41294;42.666;23.350;2024-01-30T05:18:46;96847.25;;;0.34;76.37
55424;BME280;41294;42.666;23.350;2024-01-30T05:21:11;96849.19;;;0.25;76.31
55424;BME280;41294;42.666;23.350;2024-01-30T05:23:37;96857.81;;;0.17;75.69
55424;BME280;41294;42.666;23.350;2024-01-30T05:26:03;96848.75;;;0.23;75.18
55424;BME280;41294;42.666;23.350;2024-01-30T05:28:29;96851.56;;;0.18;75.75
55424;BME280;41294;42.666;23.350;2024-01-30T05:30:56;96849.19;;;0.25;75.31
55424;BME280;41294;42.666;23.350;2024-01-30T05:33:21;96853.72;;;0.28;74.82
55424;BME280;41294;42.666;23.350;2024-01-30T05:35:47;96852.66;;;0.17;75.23
55424;BME280;41294;42.666;23.350;2024-01-30T05:38:12;96853.94;;;0.11;75.09
55424;BME280;41294;42.666;23.350;2024-01-30T05:40:37;96852.53;;;0.14;74.65
55424;BME280;41294;42.666;23.350;2024-01-30T05:43:03;96855.00;;;0.22;74.74
55424;BME280;41294;42.666;23.350;2024-01-30T05:45:29;96864.41;;;0.15;75.33
55424;BME280;41294;42.666;23.350;2024-01-30T05:47:54;96855.31;;;0.09;75.94
55424;BME280;41294;42.666;23.350;2024-01-30T05:50:20;96862.56;;;0.03;76.13
55424;BME280;41294;42.666;23.350;2024-01-30T05:52:45;96855.22;;;0.05;76.42
55424;BME280;41294;42.666;23.350;2024-01-30T05:55:12;96850.16;;;-0.03;76.71
55424;BME280;41294;42.666;23.350;2024-01-30T05:57:38;96850.38;;;0.04;76.43
55424;BME280;41294;42.666;23.350;2024-01-30T06:00:05;96849.81;;;-0.02;76.65
55424;BME280;41294;42.666;23.350;2024-01-30T06:02:31;96858.47;;;0.02;77.13
55424;BME280;41294;42.666;23.350;2024-01-30T06:04:56;96852.44;;;0.10;76.98
55424;BME280;41294;42.666;23.350;2024-01-30T06:07:22;96858.69;;;0.09;76.90
55424;BME280;41294;42.666;23.350;2024-01-30T06:09:48;96857.59;;;0.10;77.09
55424;BME280;41294;42.666;23.350;2024-01-30T06:12:13;96859.75;;;0.08;78.17
55424;BME280;41294;42.666;23.350;2024-01-30T06:14:39;96861.28;;;0.09;76.82
55424;BME280;41294;42.666;23.350;2024-01-30T06:17:04;96857.09;;;0.17;75.39
55424;BME280;41294;42.666;23.350;2024-01-30T06:19:30;96862.13;;;0.13;76.00
55424;BME280;41294;42.666;23.350;2024-01-30T06:21:59;96858.34;;;0.11;77.35
55424;BME280;41294;42.666;23.350;2024-01-30T06:24:24;96867.53;;;0.20;77.09
55424;BME280;41294;42.666;23.350;2024-01-30T06:26:50;96869.91;;;0.25;77.15
55424;BME280;41294;42.666;23.350;2024-01-30T06:29:15;96866.88;;;0.23;77.21
55424;BME280;41294;42.666;23.350;2024-01-30T06:31:42;96872.16;;;0.15;77.71
55424;BME280;41294;42.666;23.350;2024-01-30T06:34:09;96868.59;;;0.55;76.72
55424;BME280;41294;42.666;23.350;2024-01-30T06:36:35;96863.31;;;1.58;72.98
55424;BME280;41294;42.666;23.350;2024-01-30T06:39:02;96866.34;;;2.21;71.05
55424;BME280;41294;42.666;23.350;2024-01-30T06:41:27;96867.31;;;2.63;69.32
55424;BME280;41294;42.666;23.350;2024-01-30T06:43:53;96869.94;;;3.57;65.00
55424;BME280;41294;42.666;23.350;2024-01-30T06:46:19;96866.84;;;4.38;61.49
55424;BME280;41294;42.666;23.350;2024-01-30T06:48:44;96866.28;;;5.06;58.42
55424;BME280;41294;42.666;23.350;2024-01-30T06:51:11;96868.06;;;5.61;55.98
55424;BME280;41294;42.666;23.350;2024-01-30T06:53:37;96866.00;;;6.17;54.84
55424;BME280;41294;42.666;23.350;2024-01-30T06:56:03;96870.84;;;6.65;52.76
55424;BME280;41294;42.666;23.350;2024-01-30T06:58:29;96871.63;;;6.76;50.67
55424;BME280;41294;42.666;23.350;2024-01-30T07:00:54;96872.13;;;6.92;49.14
55424;BME280;41294;42.666;23.350;2024-01-30T07:03:20;96878.84;;;6.36;47.77
55424;BME280;41294;42.666;23.350;2024-01-30T07:05:45;96870.88;;;6.22;46.82
55424;BME280;41294;42.666;23.350;2024-01-30T07:08:11;96877.88;;;6.11;46.94
55424;BME280;41294;42.666;23.350;2024-01-30T07:10:36;96873.91;;;6.27;47.44
55424;BME280;41294;42.666;23.350;2024-01-30T07:13:02;96876.50;;;7.52;45.43
55424;BME280;41294;42.666;23.350;2024-01-30T07:15:29;96879.19;;;6.84;43.73
55424;BME280;41294;42.666;23.350;2024-01-30T07:17:55;96869.75;;;6.69;45.12
55424;BME280;41294;42.666;23.350;2024-01-30T07:20:20;96870.19;;;5.52;44.75
55424;BME280;41294;42.666;23.350;2024-01-30T07:22:46;96868.38;;;5.56;45.04
55424;BME280;41294;42.666;23.350;2024-01-30T07:25:11;96872.53;;;6.97;44.29
55424;BME280;41294;42.666;23.350;2024-01-30T07:27:37;96873.75;;;6.56;43.46
55424;BME280;41294;42.666;23.350;2024-01-30T07:30:03;96867.03;;;6.05;43.94
55424;BME280;41294;42.666;23.350;2024-01-30T07:32:28;96873.22;;;7.83;42.06
55424;BME280;41294;42.666;23.350;2024-01-30T07:34:54;96865.03;;;8.54;40.64
55424;BME280;41294;42.666;23.350;2024-01-30T07:37:19;96859.75;;;8.75;39.54
55424;BME280;41294;42.666;23.350;2024-01-30T07:39:45;96862.34;;;8.89;39.05
55424;BME280;41294;42.666;23.350;2024-01-30T07:42:10;96865.63;;;9.24;38.60
55424;BME280;41294;42.666;23.350;2024-01-30T07:44:36;96859.41;;;8.45;39.12
55424;BME280;41294;42.666;23.350;2024-01-30T07:47:01;96864.47;;;7.37;40.74
55424;BME280;41294;42.666;23.350;2024-01-30T07:49:28;96863.47;;;7.87;40.24
55424;BME280;41294;42.666;23.350;2024-01-30T07:51:53;96862.38;;;8.09;39.10
55424;BME280;41294;42.666;23.350;2024-01-30T07:54:19;96867.09;;;7.40;40.63
55424;BME280;41294;42.666;23.350;2024-01-30T07:56:44;96867.63;;;6.92;40.91
55424;BME280;41294;42.666;23.350;2024-01-30T07:59:10;96864.84;;;7.39;40.88
55424;BME280;41294;42.666;23.350;2024-01-30T08:01:36;96863.88;;;8.10;39.26
55424;BME280;41294;42.666;23.350;2024-01-30T08:04:02;96862.41;;;8.68;38.48
55424;BME280;41294;42.666;23.350;2024-01-30T08:06:27;96860.13;;;8.66;38.49
55424;BME280;41294;42.666;23.350;2024-01-30T08:08:53;96866.09;;;7.80;39.14
55424;BME280;41294;42.666;23.350;2024-01-30T08:11:22;96856.69;;;7.58;39.42
55424;BME280;41294;42.666;23.350;2024-01-30T08:13:55;96859.28;;;5.43;42.22
55424;BME280;41294;42.666;23.350;2024-01-30T08:16:20;96858.22;;;5.84;42.22
55424;BME280;41294;42.666;23.350;2024-01-30T08:18:46;96857.66;;;6.54;41.23
55424;BME280;41294;42.666;23.350;2024-01-30T08:21:12;96857.06;;;7.63;40.41
55424;BME280;41294;42.666;23.350;2024-01-30T08:23:40;96854.44;;;9.06;37.74
55424;BME280;41294;42.666;23.350;2024-01-30T08:26:06;96854.19;;;8.34;38.15
55424;BME280;41294;42.666;23.350;2024-01-30T08:28:32;96852.69;;;8.19;38.66
55424;BME280;41294;42.666;23.350;2024-01-30T08:30:57;96862.06;;;9.62;37.53
55424;BME280;41294;42.666;23.350;2024-01-30T08:33:22;96855.75;;;10.20;35.09
55424;BME280;41294;42.666;23.350;2024-01-30T08:35:48;96857.31;;;10.95;34.16
55424;BME280;41294;42.666;23.350;2024-01-30T08:38:13;96859.72;;;9.81;36.07
55424;BME280;41294;42.666;23.350;2024-01-30T08:40:39;96868.72;;;8.91;35.72
55424;BME280;41294;42.666;23.350;2024-01-30T08:43:04;96865.66;;;6.22;40.09
55424;BME280;41294;42.666;23.350;2024-01-30T08:45:30;96871.78;;;6.97;40.27
55424;BME280;41294;42.666;23.350;2024-01-30T08:47:56;96870.00;;;6.54;41.13
55424;BME280;41294;42.666;23.350;2024-01-30T08:50:22;96870.25;;;8.02;38.98
55424;BME280;41294;42.666;23.350;2024-01-30T08:52:47;96872.06;;;9.02;38.13
55424;BME280;41294;42.666;23.350;2024-01-30T08:55:13;96868.94;;;9.35;37.04
55424;BME280;41294;42.666;23.350;2024-01-30T08:57:39;96886.16;;;7.34;38.41
55424;BME280;41294;42.666;23.350;2024-01-30T09:00:05;96882.44;;;4.12;44.70
55424;BME280;41294;42.666;23.350;2024-01-30T09:02:32;96886.91;;;4.86;44.34
55424;BME280;41294;42.666;23.350;2024-01-30T09:04:58;96877.13;;;6.07;42.82
55424;BME280;41294;42.666;23.350;2024-01-30T09:07:23;96877.75;;;8.07;39.88
55424;BME280;41294;42.666;23.350;2024-01-30T09:09:49;96872.84;;;9.84;36.96
55424;BME280;41294;42.666;23.350;2024-01-30T09:12:14;96877.72;;;8.87;36.83
55424;BME280;41294;42.666;23.350;2024-01-30T09:14:40;96866.72;;;9.30;36.99
55424;BME280;41294;42.666;23.350;2024-01-30T09:17:06;96862.06;;;10.70;35.31
55424;BME280;41294;42.666;23.350;2024-01-30T09:19:32;96868.81;;;11.11;34.42
55424;BME280;41294;42.666;23.350;2024-01-30T09:21:57;96859.81;;;11.39;34.38
55424;BME280;41294;42.666;23.350;2024-01-30T09:24:23;96857.66;;;11.63;33.93
55424;BME280;41294;42.666;23.350;2024-01-30T09:26:48;96851.97;;;11.02;33.77
55424;BME280;41294;42.666;23.350;2024-01-30T09:29:14;96849.47;;;10.00;35.01
55424;BME280;41294;42.666;23.350;2024-01-30T09:31:43;96864.25;;;8.08;37.17
55424;BME280;41294;42.666;23.350;2024-01-30T09:34:09;96856.81;;;8.24;38.04
55424;BME280;41294;42.666;23.350;2024-01-30T09:36:34;96853.75;;;8.05;39.00
55424;BME280;41294;42.666;23.350;2024-01-30T09:39:00;96858.09;;;6.63;41.82
55424;BME280;41294;42.666;23.350;2024-01-30T09:41:27;96857.38;;;6.66;42.47
55424;BME280;41294;42.666;23.350;2024-01-30T09:43:54;96862.63;;;7.41;41.11
55424;BME280;41294;42.666;23.350;2024-01-30T09:46:23;96845.81;;;7.49;40.87
55424;BME280;41294;42.666;23.350;2024-01-30T09:48:53;96852.97;;;6.74;42.47
55424;BME280;41294;42.666;23.350;2024-01-30T09:51:20;96851.78;;;6.71;42.50
55424;BME280;41294;42.666;23.350;2024-01-30T09:53:46;96845.31;;;6.45;43.38
55424;BME280;41294;42.666;23.350;2024-01-30T09:56:13;96843.25;;;6.81;42.65
55424;BME280;41294;42.666;23.350;2024-01-30T09:58:39;96843.84;;;5.64;44.37
55424;BME280;41294;42.666;23.350;2024-01-30T10:01:07;96852.75;;;4.97;45.93
55424;BME280;41294;42.666;23.350;2024-01-30T10:03:33;96846.47;;;4.21;47.99
55424;BME280;41294;42.666;23.350;2024-01-30T10:05:59;96842.25;;;4.90;47.33
55424;BME280;41294;42.666;23.350;2024-01-30T10:08:26;96840.22;;;5.75;45.81
55424;BME280;41294;42.666;23.350;2024-01-30T10:10:52;96831.53;;;6.01;44.96
55424;BME280;41294;42.666;23.350;2024-01-30T10:13:17;96828.66;;;6.77;44.30
55424;BME280;41294;42.666;23.350;2024-01-30T10:15:43;96833.69;;;5.23;45.74
55424;BME280;41294;42.666;23.350;2024-01-30T10:18:10;96829.03;;;4.77;47.51
55424;BME280;41294;42.666;23.350;2024-01-30T10:20:36;96838.06;;;5.81;46.36
55424;BME280;41294;42.666;23.350;2024-01-30T10:23:02;96838.41;;;6.23;44.10
55424;BME280;41294;42.666;23.350;2024-01-30T10:25:29;96828.47;;;5.92;45.73
55424;BME280;41294;42.666;23.350;2024-01-30T10:27:56;96834.84;;;4.67;46.68
55424;BME280;41294;42.666;23.350;2024-01-30T10:30:22;96833.06;;;5.69;46.00
55424;BME280;41294;42.666;23.350;2024-01-30T10:32:48;96825.97;;;6.59;43.91
55424;BME280;41294;42.666;23.350;2024-01-30T10:35:13;96830.13;;;6.17;43.79
55424;BME280;41294;42.666;23.350;2024-01-30T10:37:39;96834.63;;;5.41;45.16
55424;BME280;41294;42.666;23.350;2024-01-30T10:40:05;96829.88;;;4.58;47.47
55424;BME280;41294;42.666;23.350;2024-01-30T10:42:32;96831.88;;;5.63;46.50
55424;BME280;41294;42.666;23.350;2024-01-30T10:45:12;96825.91;;;6.02;44.31
55424;BME280;41294;42.666;23.350;2024-01-30T10:47:48;96823.44;;;6.20;45.01
55424;BME280;41294;42.666;23.350;2024-01-30T10:50:15;96825.09;;;5.95;44.19
55424;BME280;41294;42.666;23.350;2024-01-30T10:52:41;96824.19;;;6.20;44.53
55424;BME280;41294;42.666;23.350;2024-01-30T10:55:10;96824.56;;;4.00;48.57
55424;BME280;41294;42.666;23.350;2024-01-30T10:57:37;96819.22;;;3.48;50.78
55424;BME280;41294;42.666;23.350;2024-01-30T11:00:06;96819.78;;;3.38;51.44
55424;BME280;41294;42.666;23.350;2024-01-30T11:02:38;96809.16;;;3.91;50.28
55424;BME280;41294;42.666;23.350;2024-01-30T11:05:05;96804.56;;;4.59;48.74
55424;BME280;41294;42.666;23.350;2024-01-30T11:07:30;96795.94;;;4.84;48.45
55424;BME280;41294;42.666;23.350;2024-01-30T11:12:29;96803.09;;;3.61;51.26
55424;BME280;41294;42.666;23.350;2024-01-30T11:22:44;96805.94;;;3.34;52.94
55424;BME280;41294;42.666;23.350;2024-01-30T11:25:17;96798.56;;;4.03;51.32
55424;BME280;41294;42.666;23.350;2024-01-30T11:27:45;96800.03;;;3.78;51.28
55424;BME280;41294;42.666;23.350;2024-01-30T11:30:27;96797.50;;;2.80;54.84
55424;BME280;41294;42.666;23.350;2024-01-30T11:33:10;96804.28;;;2.85;54.94
55424;BME280;41294;42.666;23.350;2024-01-30T11:35:39;96797.50;;;3.40;53.43
55424;BME280;41294;42.666;23.350;2024-01-30T11:38:06;96798.56;;;3.58;52.25
55424;BME280;41294;42.666;23.350;2024-01-30T11:40:32;96802.41;;;2.85;54.45
55424;BME280;41294;42.666;23.350;2024-01-30T11:42:59;96798.84;;;2.93;54.63
55424;BME280;41294;42.666;23.350;2024-01-30T11:45:26;96801.16;;;3.36;53.23
55424;BME280;41294;42.666;23.350;2024-01-30T11:47:51;96793.66;;;3.53;53.17
55424;BME280;41294;42.666;23.350;2024-01-30T11:50:17;96788.28;;;4.13;51.43
55424;BME280;41294;42.666;23.350;2024-01-30T11:52:43;96794.13;;;3.59;51.12
55424;BME280;41294;42.666;23.350;2024-01-30T11:55:09;96792.53;;;3.32;52.84
55424;BME280;41294;42.666;23.350;2024-01-30T11:57:35;96774.88;;;3.63;51.90
55424;BME280;41294;42.666;23.350;2024-01-30T12:00:03;96777.84;;;3.65;52.23
55424;BME280;41294;42.666;23.350;2024-01-30T12:02:39;96773.41;;;4.14;51.18
55424;BME280;41294;42.666;23.350;2024-01-30T12:05:05;96767.34;;;4.62;50.16
55424;BME280;41294;42.666;23.350;2024-01-30T12:07:31;96763.56;;;4.56;49.24
55424;BME280;41294;42.666;23.350;2024-01-30T12:09:57;96764.16;;;4.46;50.19
55424;BME280;41294;42.666;23.350;2024-01-30T12:12:24;96752.34;;;5.17;49.49
55424;BME280;41294;42.666;23.350;2024-01-30T12:14:50;96745.91;;;4.75;49.42
55424;BME280;41294;42.666;23.350;2024-01-30T12:17:30;96752.59;;;4.43;48.82
55424;BME280;41294;42.666;23.350;2024-01-30T12:20:12;96746.34;;;4.22;50.26
55424;BME280;41294;42.666;23.350;2024-01-30T12:22:42;96742.81;;;4.95;48.69
55424;BME280;41294;42.666;23.350;2024-01-30T12:25:12;96745.88;;;4.72;49.41
55424;BME280;41294;42.666;23.350;2024-01-30T12:27:39;96737.06;;;4.24;50.02
55424;BME280;41294;42.666;23.350;2024-01-30T12:30:09;96737.00;;;3.69;51.23
55424;BME280;41294;42.666;23.350;2024-01-30T12:32:36;96743.25;;;3.20;52.86
55424;BME280;41294;42.666;23.350;2024-01-30T12:35:02;96736.53;;;3.86;52.39
55424;BME280;41294;42.666;23.350;2024-01-30T12:37:29;96730.13;;;4.65;49.72
55424;BME280;41294;42.666;23.350;2024-01-30T12:39:56;96718.38;;;4.78;49.26
55424;BME280;41294;42.666;23.350;2024-01-30T12:42:22;96717.94;;;5.08;48.81
55424;BME280;41294;42.666;23.350;2024-01-30T12:44:48;96717.53;;;4.70;48.72
55424;BME280;41294;42.666;23.350;2024-01-30T12:47:14;96722.78;;;4.74;49.08
55424;BME280;41294;42.666;23.350;2024-01-30T12:49:44;96715.84;;;5.64;47.12
55424;BME280;41294;42.666;23.350;2024-01-30T12:52:16;96726.09;;;5.83;46.16
55424;BME280;41294;42.666;23.350;2024-01-30T12:54:42;96718.34;;;5.50;46.81
55424;BME280;41294;42.666;23.350;2024-01-30T12:57:07;96722.25;;;4.58;48.03
55424;BME280;41294;42.666;23.350;2024-01-30T12:59:33;96703.75;;;3.59;51.31
55424;BME280;41294;42.666;23.350;2024-01-30T13:02:01;96700.44;;;4.40;50.32
55424;BME280;41294;42.666;23.350;2024-01-30T13:04:28;96705.13;;;4.60;49.48